Time;durP1;ratioP1;P1;durP2;ratioP2;P2;SDS_P1;SDS_P2;PMS_P1;PMS_P2;Temp;Humidity;BMP_temperature;BMP_pressure;BME280_temperature;BME280_humidity;BME280_pressure;Samples;Min_cycle;Max_cycle;Signal;HPM_P1;HPM_P2
2022/11/27 00:01:31;;;;;;;36.10;14.10;;;;;;;0.65;84.82;99874.08;102015;1300;76481;-25
2022/11/27 00:03:58;;;;;;;22.00;8.00;;;;;;;0.49;85.23;99875.17;102329;1299;74662;-24
2022/11/27 00:06:26;;;;;;;28.50;10.70;;;;;;;0.93;85.36;99874.15;102233;1302;75332;-25
2022/11/27 00:08:58;;;;;;;38.30;14.90;;;;;;;1.58;84.13;99879.11;102087;1294;63042;-24
2022/11/27 00:11:27;;;;;;;38.10;13.40;;;;;;;1.74;83.27;99876.73;102277;1301;61937;-25
2022/11/27 00:13:54;;;;;;;28.00;10.30;;;;;;;1.53;82.76;99874.79;102186;1295;76369;-25
2022/11/27 00:16:22;;;;;;;28.40;12.30;;;;;;;1.33;83.32;99874.86;102150;1300;75831;-25
2022/11/27 00:18:50;;;;;;;35.40;15.00;;;;;;;1.10;83.44;99870.92;102390;1299;74226;-25
2022/11/27 00:21:23;;;;;;;32.10;14.60;;;;;;;0.89;84.06;99870.52;102212;1299;62238;-24
2022/11/27 00:23:51;;;;;;;18.50;7.70;;;;;;;0.76;84.43;99868.98;101986;1301;61190;-26
2022/11/27 00:26:19;;;;;;;33.30;12.30;;;;;;;1.21;84.58;99862.73;102347;1292;74405;-25
2022/11/27 00:28:46;;;;;;;32.60;13.10;;;;;;;1.81;83.20;99866.73;102274;1301;75755;-24
2022/11/27 00:31:19;;;;;;;33.40;13.20;;;;;;;1.88;82.17;99867.20;102305;1288;72787;-25
2022/11/27 00:33:47;;;;;;;19.90;9.20;;;;;;;1.71;82.08;99865.50;102242;1296;61649;-25
2022/11/27 00:36:14;;;;;;;25.90;11.50;;;;;;;1.42;82.30;99862.12;102219;1292;61529;-26
2022/11/27 00:38:42;;;;;;;34.40;14.30;;;;;;;1.21;83.08;99865.81;102230;1301;76373;-25
2022/11/27 00:41:11;;;;;;;31.90;13.20;;;;;;;1.02;83.57;99862.59;102201;1301;76767;-25
2022/11/27 00:43:39;;;;;;;20.00;7.20;;;;;;;0.85;83.98;99862.76;101952;1304;75179;-25
2022/11/27 00:46:12;;;;;;;27.40;9.80;;;;;;;1.23;84.05;99866.10;102236;1294;62070;-25
2022/11/27 00:48:41;;;;;;;30.80;12.90;;;;;;;1.78;82.80;99869.38;102288;1300;62856;-25
2022/11/27 00:51:11;;;;;;;37.10;14.70;;;;;;;1.86;82.37;99868.94;102336;1299;76334;-25
2022/11/27 00:53:38;;;;;;;22.20;9.80;;;;;;;1.70;82.07;99865.02;105785;1287;75722;-24
2022/11/27 00:56:06;;;;;;;21.60;10.10;;;;;;;1.46;82.19;99866.45;105757;1291;74794;-23
2022/11/27 00:58:34;;;;;;;35.10;13.60;;;;;;;1.14;82.91;99865.17;105792;1287;60250;-23
2022/11/27 01:01:05;;;;;;;37.00;16.50;;;;;;;0.92;83.98;99864.95;105817;1287;62437;-23
2022/11/27 01:03:33;;;;;;;22.20;9.50;;;;;;;0.77;85.10;99864.00;105709;1287;74832;-23
2022/11/27 01:06:05;;;;;;;30.00;11.80;;;;;;;1.25;84.87;99866.55;105933;1291;75310;-24
2022/11/27 01:08:32;;;;;;;37.80;14.20;;;;;;;1.82;83.12;99868.59;105641;1291;74825;-23
2022/11/27 01:11:01;;;;;;;25.80;11.20;;;;;;;1.81;82.19;99869.48;105759;1287;60697;-24
2022/11/27 01:13:30;;;;;;;29.90;13.00;;;;;;;1.56;82.28;99872.98;105774;1279;60953;-24
2022/11/27 01:15:59;;;;;;;34.20;14.90;;;;;;;1.22;83.27;99868.88;105681;1298;74942;-24
2022/11/27 01:18:26;;;;;;;33.60;13.60;;;;;;;1.02;84.29;99868.09;105772;1291;74986;-24
2022/11/27 01:20:54;;;;;;;33.60;14.90;;;;;;;0.86;84.84;99870.10;105731;1295;74948;-23
2022/11/27 01:23:21;;;;;;;29.00;13.20;;;;;;;0.66;85.68;99862.06;105803;1290;61137;-23
2022/11/27 01:25:49;;;;;;;33.70;13.20;;;;;;;1.03;86.19;99858.47;105812;1286;61180;-23
2022/11/27 01:28:16;;;;;;;48.70;18.80;;;;;;;1.63;84.37;99855.67;105817;1285;75671;-24
2022/11/27 01:30:44;;;;;;;48.40;18.80;;;;;;;1.56;83.09;99854.49;105829;1291;76717;-23
2022/11/27 01:33:11;;;;;;;45.20;18.40;;;;;;;1.33;83.46;99848.70;105788;1288;73473;-23
2022/11/27 01:35:38;;;;;;;45.50;19.70;;;;;;;1.07;84.50;99847.61;105716;1287;61707;-24
2022/11/27 01:38:06;;;;;;;48.60;22.30;;;;;;;0.84;85.51;99845.34;105709;1293;61399;-23
2022/11/27 01:40:33;;;;;;;57.80;24.00;;;;;;;0.58;86.89;99845.89;105720;1294;75990;-23
2022/11/27 01:43:01;;;;;;;43.90;18.70;;;;;;;0.38;88.35;99847.80;105730;1294;76279;-24
2022/11/27 01:45:28;;;;;;;55.60;22.00;;;;;;;0.92;88.24;99847.30;105756;1287;73710;-23
2022/11/27 01:47:58;;;;;;;49.50;18.20;;;;;;;1.75;87.03;99847.06;105680;1288;61318;-24
2022/11/27 01:50:33;;;;;;;42.10;16.60;;;;;;;1.76;84.08;99851.99;105739;1281;61136;-23
2022/11/27 01:53:06;;;;;;;36.10;15.10;;;;;;;1.71;83.72;99849.42;105809;1293;75702;-24
2022/11/27 01:55:36;;;;;;;34.10;14.80;;;;;;;1.47;83.51;99846.23;105678;1290;75125;-24
2022/11/27 01:58:09;;;;;;;45.00;18.40;;;;;;;1.23;83.82;99846.95;105818;1294;74922;-24
2022/11/27 02:00:37;;;;;;;42.60;17.70;;;;;;;1.04;84.63;99847.67;105707;1294;60299;-23
2022/11/27 02:03:04;;;;;;;42.30;17.00;;;;;;;0.96;85.12;99847.40;105910;1292;61463;-23
2022/11/27 02:05:32;;;;;;;31.00;10.80;;;;;;;0.90;85.33;99849.94;105771;1294;76150;-23
2022/11/27 02:08:02;;;;;;;37.00;13.50;;;;;;;1.45;85.00;99856.52;105769;1294;74843;-25
2022/11/27 02:10:56;;;;;;;35.50;12.70;;;;;;;2.14;83.78;99858.97;105728;1285;74531;-23
2022/11/27 02:13:42;;;;;;;32.40;13.50;;;;;;;2.23;81.99;99860.88;105611;1297;61508;-23
2022/11/27 02:16:16;;;;;;;26.60;10.60;;;;;;;2.06;82.09;99862.50;105614;1297;61477;-23
2022/11/27 02:18:58;;;;;;;36.20;15.20;;;;;;;1.65;81.93;99865.52;105766;1294;75765;-23
2022/11/27 02:21:35;;;;;;;36.80;14.90;;;;;;;1.26;83.05;99867.73;105764;1292;76344;-23
2022/11/27 02:24:22;;;;;;;35.80;14.50;;;;;;;0.97;84.09;99869.75;105752;1295;73339;-23
2022/11/27 02:27:17;;;;;;;30.70;10.90;;;;;;;0.73;85.35;99870.10;105688;1294;63320;-24
2022/11/27 02:29:45;;;;;;;34.40;13.60;;;;;;;1.23;85.22;99872.43;105720;1294;62316;-24
2022/11/27 02:32:12;;;;;;;29.70;12.90;;;;;;;1.66;83.74;99874.39;104861;1297;1062018;-24
2022/11/27 02:35:31;;;;;;;29.80;11.80;;;;;;;1.61;82.97;99872.32;105814;1292;76511;-24
2022/11/27 02:38:05;;;;;;;26.70;12.10;;;;;;;1.19;83.88;99876.16;104952;1306;73753;-24
2022/11/27 02:40:43;;;;;;;23.10;11.80;;;;;;;0.92;84.81;99879.48;105612;1297;59298;-23
2022/11/27 02:43:13;;;;;;;29.90;12.20;;;;;;;0.69;85.98;99877.73;105707;1294;61391;-23
2022/11/27 02:45:43;;;;;;;30.00;12.10;;;;;;;0.50;86.73;99878.90;105727;1295;76035;-24
2022/11/27 02:48:11;;;;;;;23.70;9.60;;;;;;;0.31;87.83;99889.48;105619;1294;76488;-23
2022/11/27 02:50:39;;;;;;;26.20;10.70;;;;;;;0.71;87.95;99885.52;105581;1294;74735;-23
2022/11/27 02:53:27;;;;;;;25.50;12.60;;;;;;;1.34;86.41;99885.11;105705;1294;62489;-24
2022/11/27 02:55:54;;;;;;;24.00;10.90;;;;;;;1.42;85.09;99883.33;105637;1295;61248;-25
2022/11/27 02:58:23;;;;;;;26.40;11.50;;;;;;;1.21;85.04;99883.45;105736;1294;74761;-24
2022/11/27 03:00:51;;;;;;;22.40;11.60;;;;;;;1.07;85.59;99884.36;105512;1294;76417;-24
2022/11/27 03:03:23;;;;;;;27.90;12.70;;;;;;;0.90;85.81;99882.97;105721;1295;74958;-23
2022/11/27 03:05:52;;;;;;;28.00;12.50;;;;;;;0.68;86.37;99884.27;105700;1294;60377;-23
2022/11/27 03:08:25;;;;;;;16.60;6.60;;;;;;;0.53;86.84;99886.52;105597;1293;62194;-23
2022/11/27 03:11:01;;;;;;;29.30;12.00;;;;;;;0.87;86.75;99887.48;105633;1297;76115;-24
2022/11/27 03:13:29;;;;;;;26.80;10.50;;;;;;;1.38;84.92;99888.94;105633;1294;76279;-24
2022/11/27 03:15:59;;;;;;;28.20;12.60;;;;;;;1.37;84.38;99888.28;105708;1294;73543;-23
2022/11/27 03:18:36;;;;;;;28.40;11.80;;;;;;;1.18;84.70;99887.98;105597;1298;62546;-24
2022/11/27 03:21:23;;;;;;;27.00;10.50;;;;;;;0.98;85.34;99892.33;105618;1295;62390;-23
2022/11/27 03:23:50;;;;;;;31.90;13.50;;;;;;;0.73;86.29;99898.11;105648;1297;75957;-23
2022/11/27 03:26:18;;;;;;;31.50;14.00;;;;;;;0.52;87.18;99895.08;105732;1288;75115;-23
2022/11/27 03:28:45;;;;;;;19.10;8.10;;;;;;;0.43;88.07;99896.88;105731;1295;73503;-23
2022/11/27 03:31:13;;;;;;;31.50;13.40;;;;;;;0.89;87.84;99897.85;105729;1287;60326;-23
2022/11/27 03:33:40;;;;;;;23.40;10.90;;;;;;;1.50;85.91;99895.95;105727;1295;62627;-23
2022/11/27 03:36:12;;;;;;;31.20;13.40;;;;;;;1.57;84.61;99898.98;105813;1293;75778;-23
2022/11/27 03:38:40;;;;;;;26.70;11.70;;;;;;;1.38;84.41;99897.14;105651;1293;76069;-23
2022/11/27 03:41:15;;;;;;;25.10;11.40;;;;;;;1.08;84.94;99896.12;105598;1297;73073;-23
2022/11/27 03:43:55;;;;;;;30.40;13.10;;;;;;;0.77;86.15;99896.31;105548;1297;59395;-23
2022/11/27 03:46:33;;;;;;;29.80;13.30;;;;;;;0.56;87.26;99902.86;105687;1298;62172;-23
2022/11/27 03:49:21;;;;;;;19.00;8.20;;;;;;;0.43;88.00;99902.17;105732;1287;75883;-23
2022/11/27 03:51:51;;;;;;;29.00;11.70;;;;;;;0.98;87.24;99895.89;105664;1297;75402;-23
2022/11/27 03:55:00;;;;;;;31.60;11.20;;;;;;;1.57;85.26;99894.34;105757;1295;74840;-24
2022/11/27 03:57:31;;;;;;;26.60;11.40;;;;;;;1.72;84.86;99894.92;105234;1299;62212;-23
2022/11/27 03:59:59;;;;;;;28.50;11.00;;;;;;;1.63;84.22;99891.95;104870;1306;61462;-24
2022/11/27 04:02:30;;;;;;;26.60;10.80;;;;;;;1.37;83.99;99894.60;104794;1305;75959;-23
2022/11/27 04:04:57;;;;;;;24.90;10.60;;;;;;;1.16;84.48;99895.89;104804;1300;76442;-23
2022/11/27 04:07:25;;;;;;;31.50;14.00;;;;;;;0.91;84.89;99895.91;105286;1300;74008;-24
2022/11/27 04:09:52;;;;;;;21.10;8.50;;;;;;;0.65;86.17;99898.01;105239;1308;61985;-23
2022/11/27 04:12:19;;;;;;;22.30;10.10;;;;;;;0.99;85.95;99896.56;105212;1301;62689;-24
2022/11/27 04:14:47;;;;;;;33.80;14.90;;;;;;;1.52;84.32;99895.86;105330;1300;73643;-24
2022/11/27 04:17:14;;;;;;;40.70;16.20;;;;;;;1.45;83.46;99897.77;105232;1300;76584;-24
2022/11/27 04:19:42;;;;;;;35.60;15.70;;;;;;;1.34;84.16;99901.73;105220;1299;74917;-23
2022/11/27 04:22:09;;;;;;;37.90;15.30;;;;;;;1.14;84.54;99901.95;105235;1299;60648;-23
2022/11/27 04:24:40;;;;;;;37.80;16.30;;;;;;;0.98;85.29;99908.70;105349;1301;62131;-23
2022/11/27 04:27:10;;;;;;;42.90;16.90;;;;;;;0.76;86.18;99906.60;105255;1301;75826;-23
2022/11/27 04:29:39;;;;;;;24.10;9.40;;;;;;;0.65;86.94;99907.75;105253;1292;76343;-25
2022/11/27 04:32:06;;;;;;;30.40;13.00;;;;;;;1.11;86.21;99908.70;105534;1294;74197;-24
2022/11/27 04:34:33;;;;;;;30.50;11.90;;;;;;;1.57;84.20;99911.64;105694;1295;61083;-23
2022/11/27 04:37:01;;;;;;;39.80;16.10;;;;;;;1.59;83.01;99912.27;105656;1294;62408;-23
2022/11/27 04:39:28;;;;;;;31.40;13.70;;;;;;;1.36;83.37;99911.23;105643;1297;75923;-24
2022/11/27 04:41:56;;;;;;;30.50;14.00;;;;;;;1.12;84.11;99909.17;105577;1295;76478;-23
2022/11/27 04:44:23;;;;;;;32.40;14.50;;;;;;;0.92;84.98;99911.28;105678;1295;73450;-24
2022/11/27 04:46:50;;;;;;;32.30;13.00;;;;;;;0.69;85.84;99911.05;105663;1290;60508;-24
2022/11/27 04:49:18;;;;;;;35.80;14.60;;;;;;;0.64;86.73;99915.80;105649;1298;62658;-24
2022/11/27 04:51:45;;;;;;;34.60;14.90;;;;;;;1.06;85.45;99909.87;105620;1294;74877;-23
2022/11/27 04:54:13;;;;;;;40.80;16.90;;;;;;;1.15;84.46;99911.14;105630;1298;75871;-24
2022/11/27 04:56:40;;;;;;;35.90;15.20;;;;;;;1.01;84.44;99911.56;105600;1288;74962;-23
2022/11/27 04:59:07;;;;;;;38.10;15.90;;;;;;;0.75;85.45;99917.39;105619;1297;60284;-24
2022/11/27 05:01:35;;;;;;;30.80;14.50;;;;;;;0.48;86.80;99921.17;105639;1296;62117;-23
2022/11/27 05:04:02;;;;;;;21.00;10.70;;;;;;;0.29;87.73;99924.21;105641;1290;75792;-23
2022/11/27 05:06:32;;;;;;;29.90;12.80;;;;;;;0.11;89.28;99923.12;105630;1297;76321;-23
2022/11/27 05:09:00;;;;;;;30.20;13.60;;;;;;;0.58;88.07;99926.57;105642;1287;72797;-23
2022/11/27 05:11:28;;;;;;;30.50;13.00;;;;;;;0.87;86.39;99924.42;105665;1295;60954;-24
2022/11/27 05:14:16;;;;;;;28.00;13.70;;;;;;;0.91;85.52;99928.08;105653;1290;62368;-23
2022/11/27 05:16:51;;;;;;;29.80;14.00;;;;;;;0.83;85.62;99932.56;105636;1298;76073;-23
2022/11/27 05:19:20;;;;;;;28.40;12.70;;;;;;;0.47;86.54;99937.60;105576;1297;75278;-23
2022/11/27 05:21:47;;;;;;;26.50;12.40;;;;;;;0.26;87.80;99931.98;105587;1297;74981;-24
2022/11/27 05:24:16;;;;;;;23.90;10.60;;;;;;;0.07;88.93;99934.13;105669;1298;63380;-23
2022/11/27 05:26:43;;;;;;;27.40;12.70;;;;;;;0.35;88.71;99935.50;105664;1294;62642;-23
2022/11/27 05:29:10;;;;;;;24.50;12.10;;;;;;;0.74;87.21;99933.80;105657;1288;74994;-24
2022/11/27 05:31:38;;;;;;;25.90;12.50;;;;;;;0.61;86.96;99935.36;105646;1294;76860;-24
2022/11/27 05:34:06;;;;;;;27.90;13.10;;;;;;;0.67;86.70;99934.36;105746;1294;74731;-23
2022/11/27 05:36:33;;;;;;;29.70;13.50;;;;;;;0.47;87.05;99934.85;105579;1297;62072;-24
2022/11/27 05:39:02;;;;;;;31.10;14.00;;;;;;;0.26;87.94;99938.14;105672;1298;62412;-23
2022/11/27 05:41:30;;;;;;;27.70;11.80;;;;;;;0.23;88.61;99940.07;105564;1298;76344;-23
2022/11/27 05:43:57;;;;;;;26.80;12.90;;;;;;;0.74;87.65;99939.48;105604;1297;74299;-24
2022/11/27 05:46:25;;;;;;;30.70;14.30;;;;;;;1.15;85.26;99938.87;105664;1293;73090;-24
2022/11/27 05:48:52;;;;;;;32.40;13.90;;;;;;;1.25;84.29;99941.67;105609;1296;62287;-24
2022/11/27 05:51:20;;;;;;;29.10;13.70;;;;;;;1.13;84.23;99943.02;105620;1298;61066;-23
2022/11/27 05:53:48;;;;;;;27.00;12.20;;;;;;;0.85;84.87;99947.37;105521;1297;75990;-24
2022/11/27 05:56:16;;;;;;;28.50;12.20;;;;;;;0.62;85.66;99952.95;105615;1286;76417;-23
2022/11/27 05:58:44;;;;;;;26.50;11.30;;;;;;;0.49;86.46;99953.10;105555;1297;74767;-23
2022/11/27 06:01:13;;;;;;;21.30;9.10;;;;;;;0.62;86.18;99956.17;105621;1298;61510;-23
2022/11/27 06:03:40;;;;;;;23.40;11.20;;;;;;;0.91;84.97;99957.66;105632;1297;62466;-24
2022/11/27 06:06:09;;;;;;;27.30;12.90;;;;;;;0.95;84.44;99956.15;105579;1296;74802;-23
2022/11/27 06:08:37;;;;;;;21.80;11.40;;;;;;;0.90;84.27;99956.83;105635;1293;76336;-23
2022/11/27 06:11:18;;;;;;;23.70;11.40;;;;;;;0.76;84.48;99960.94;105574;1294;74950;-23
2022/11/27 06:13:47;;;;;;;27.80;13.90;;;;;;;0.52;85.30;99959.34;105636;1298;60361;-23
2022/11/27 06:16:19;;;;;;;18.70;9.50;;;;;;;0.31;86.00;99961.58;105584;1289;61429;-23
2022/11/27 06:18:50;;;;;;;18.40;8.50;;;;;;;0.65;85.36;99965.52;105639;1296;73917;-23
2022/11/27 06:21:18;;;;;;;18.90;9.40;;;;;;;1.16;83.37;99961.25;105638;1293;76509;-23
2022/11/27 06:23:46;;;;;;;21.50;11.80;;;;;;;1.22;82.05;99967.59;105668;1287;75032;-23
2022/11/27 06:26:18;;;;;;;20.90;10.70;;;;;;;1.03;82.15;99967.75;105602;1297;62255;-23
2022/11/27 06:28:46;;;;;;;16.40;8.60;;;;;;;0.80;83.16;99974.01;105650;1298;61049;-23
2022/11/27 06:31:19;;;;;;;16.30;8.90;;;;;;;0.57;83.91;99977.51;105595;1298;76190;-23
2022/11/27 06:33:47;;;;;;;14.80;8.50;;;;;;;0.33;85.14;99977.24;105603;1298;76139;-23
2022/11/27 06:36:15;;;;;;;19.80;11.00;;;;;;;0.30;86.10;99977.30;105356;1292;74729;-23
2022/11/27 06:38:42;;;;;;;12.80;7.80;;;;;;;0.89;84.00;99976.84;105494;1298;61383;-23
2022/11/27 06:41:15;;;;;;;15.70;9.00;;;;;;;1.14;82.36;99978.42;105575;1297;61524;-23
2022/11/27 06:43:42;;;;;;;16.50;8.10;;;;;;;1.15;81.77;99976.67;105584;1298;74936;-23
2022/11/27 06:46:12;;;;;;;12.30;7.70;;;;;;;0.84;82.35;99976.98;105584;1298;76477;-24
2022/11/27 06:48:40;;;;;;;14.00;8.60;;;;;;;0.56;83.55;99978.22;105523;1296;74713;-23
2022/11/27 06:51:09;;;;;;;15.60;7.50;;;;;;;0.53;84.42;99979.13;105464;1296;61443;-23
2022/11/27 06:53:37;;;;;;;14.00;8.10;;;;;;;0.30;84.76;99976.80;105422;1300;61745;-23
2022/11/27 06:56:05;;;;;;;10.90;6.90;;;;;;;0.28;85.45;99978.02;105654;1293;74659;-24
2022/11/27 06:58:34;;;;;;;14.30;6.80;;;;;;;0.93;83.75;99979.48;105369;1301;75104;-23
2022/11/27 07:01:03;;;;;;;15.70;9.10;;;;;;;1.39;81.67;99979.08;105605;1297;74552;-23
2022/11/27 07:03:30;;;;;;;17.10;9.40;;;;;;;1.29;80.88;99976.43;105547;1292;62430;-24
2022/11/27 07:05:59;;;;;;;14.30;8.80;;;;;;;1.20;81.22;99978.59;105616;1298;62375;-24
2022/11/27 07:08:26;;;;;;;15.80;9.80;;;;;;;0.92;81.78;99977.30;105526;1297;75599;-23
2022/11/27 07:11:00;;;;;;;14.90;8.80;;;;;;;0.73;83.12;99981.02;105636;1298;76257;-24
2022/11/27 07:13:29;;;;;;;20.30;11.30;;;;;;;0.67;83.67;99982.73;105542;1298;73716;-23
2022/11/27 07:16:04;;;;;;;13.00;7.10;;;;;;;0.67;83.74;99986.14;105571;1298;62038;-23
2022/11/27 07:18:42;;;;;;;17.10;9.70;;;;;;;0.87;82.69;99987.32;105611;1298;62449;-24
2022/11/27 07:21:10;;;;;;;16.70;9.00;;;;;;;1.16;81.64;99986.91;105509;1297;75903;-23
2022/11/27 07:23:37;;;;;;;13.00;6.80;;;;;;;1.26;81.23;99990.92;105570;1296;75153;-23
2022/11/27 07:26:09;;;;;;;14.80;7.90;;;;;;;1.37;81.20;99990.09;105499;1298;75407;-23
2022/11/27 07:28:37;;;;;;;16.30;8.90;;;;;;;0.99;81.62;99991.11;105515;1298;61420;-23
2022/11/27 07:31:05;;;;;;;14.30;8.30;;;;;;;0.75;82.79;99991.91;105584;1298;60182;-24
2022/11/27 07:33:32;;;;;;;16.00;8.90;;;;;;;0.80;82.89;99988.72;105409;1300;74847;-24
2022/11/27 07:36:06;;;;;;;15.80;7.80;;;;;;;0.65;83.14;99987.89;105597;1298;75236;-24
2022/11/27 07:38:35;;;;;;;16.40;7.90;;;;;;;0.72;83.46;99986.17;105537;1298;73880;-23
2022/11/27 07:41:05;;;;;;;19.60;10.80;;;;;;;1.23;81.94;99984.48;105380;1296;62214;-23
2022/11/27 07:43:35;;;;;;;20.60;10.00;;;;;;;1.42;80.48;99981.55;105567;1297;60090;-24
2022/11/27 07:46:05;;;;;;;24.60;12.20;;;;;;;1.41;80.29;99984.85;105555;1297;75994;-24
2022/11/27 07:48:36;;;;;;;20.10;9.60;;;;;;;1.21;80.93;99987.80;105505;1298;76584;-24
2022/11/27 07:51:10;;;;;;;13.90;7.90;;;;;;;1.06;81.61;99988.20;105425;1301;74541;-24
2022/11/27 07:53:39;;;;;;;16.60;8.80;;;;;;;0.91;82.02;99991.48;105563;1297;61696;-23
2022/11/27 07:56:12;;;;;;;21.80;11.10;;;;;;;0.78;82.86;99996.44;105374;1307;62271;-24
2022/11/27 07:58:41;;;;;;;17.00;9.40;;;;;;;0.75;83.10;99995.17;105437;1302;75712;-24
2022/11/27 08:01:13;;;;;;;18.30;9.90;;;;;;;1.24;82.31;99994.20;105543;1297;76642;-24
2022/11/27 08:03:46;;;;;;;19.90;10.50;;;;;;;1.46;79.97;99993.25;105509;1296;74688;-24
2022/11/27 08:06:19;;;;;;;18.80;9.50;;;;;;;1.40;79.58;99995.64;105526;1298;60414;-24
2022/11/27 08:08:49;;;;;;;;;;;;;;;1.18;80.47;99998.66;105583;1298;62308;-24
2022/11/27 08:11:28;;;;;;;26.50;12.70;;;;;;;0.76;81.70;100001.27;105545;1296;75868;-24
2022/11/27 08:14:00;;;;;;;22.90;11.60;;;;;;;0.80;82.19;100000.86;105553;1298;75285;-24
2022/11/27 08:16:32;;;;;;;23.10;13.10;;;;;;;0.55;83.03;99999.92;105398;1301;74959;-24
2022/11/27 08:19:03;;;;;;;23.20;11.80;;;;;;;0.53;83.16;100002.56;105500;1296;61743;-24
2022/11/27 08:21:33;;;;;;;17.60;8.90;;;;;;;0.98;82.28;100000.38;105528;1296;60993;-24
2022/11/27 08:24:04;;;;;;;21.20;11.10;;;;;;;1.27;80.55;100002.52;105499;1298;75064;-24
2022/11/27 08:26:34;;;;;;;16.60;9.30;;;;;;;1.35;80.18;100003.84;105392;1298;76318;-24
2022/11/27 08:29:05;;;;;;;19.50;11.00;;;;;;;1.20;80.32;100005.09;105394;1299;74799;-24
2022/11/27 08:31:35;;;;;;;24.90;13.70;;;;;;;0.75;82.37;100008.85;105584;1297;60311;-24
2022/11/27 08:34:06;;;;;;;16.60;9.70;;;;;;;0.51;83.82;100010.62;105420;1296;60235;-24
2022/11/27 08:44:08;;;;;;;21.80;11.50;;;;;;;1.23;82.23;100011.51;99149;1337;599372;-23
2022/11/27 08:46:36;;;;;;;20.50;9.30;;;;;;;0.73;83.93;100009.59;101253;1311;61123;-25
2022/11/27 08:49:03;;;;;;;26.10;12.60;;;;;;;0.72;84.58;100009.59;101258;1311;62722;-25
2022/11/27 08:51:30;;;;;;;22.10;10.30;;;;;;;0.55;85.35;100008.99;100991;1316;73745;-25
2022/11/27 08:53:58;;;;;;;20.30;10.30;;;;;;;0.26;86.46;100006.63;101268;1308;76746;-25
2022/11/27 08:56:26;;;;;;;13.90;6.30;;;;;;;0.25;87.19;100002.52;100971;1318;74430;-25
2022/11/27 08:58:53;;;;;;;20.50;10.60;;;;;;;0.85;85.59;100000.04;100507;1311;1122098;-25
2022/11/27 09:01:23;;;;;;;23.30;12.00;;;;;;;0.82;84.59;99999.77;101354;1310;62777;-25
2022/11/27 09:03:51;;;;;;;21.10;10.60;;;;;;;0.82;84.86;99999.77;101180;1312;75023;-23
2022/11/27 09:06:21;;;;;;;24.90;11.30;;;;;;;0.67;85.41;99996.05;101465;1310;75212;-23
2022/11/27 09:08:49;;;;;;;27.60;12.20;;;;;;;0.55;85.88;99995.83;101114;1311;75426;-23
2022/11/27 09:11:18;;;;;;;17.40;9.20;;;;;;;0.58;86.05;99992.17;101428;1310;62698;-24
2022/11/27 09:13:45;;;;;;;16.30;8.20;;;;;;;0.96;84.21;99987.79;101324;1309;61787;-25
2022/11/27 09:16:14;;;;;;;16.80;10.00;;;;;;;1.02;83.17;99983.51;101489;1309;75340;-26
2022/11/27 09:18:46;;;;;;;18.70;10.40;;;;;;;0.92;83.19;99986.51;101248;1306;75594;-26
2022/11/27 09:21:14;;;;;;;16.70;8.30;;;;;;;0.48;84.16;99984.04;101237;1307;74157;-25
2022/11/27 09:23:42;;;;;;;21.30;11.10;;;;;;;0.27;85.60;99985.77;101336;1307;61145;-25
2022/11/27 09:26:12;;;;;;;22.10;11.00;;;;;;;0.22;85.21;99985.36;101395;1303;61912;-25
2022/11/27 09:28:40;;;;;;;24.40;11.40;;;;;;;0.51;84.75;99983.96;101049;1318;75584;-25
2022/11/27 09:31:09;;;;;;;18.90;11.60;;;;;;;0.84;83.52;99983.82;101301;1303;75541;-23
2022/11/27 09:33:37;;;;;;;17.60;11.50;;;;;;;0.35;83.41;99980.95;101149;1314;73066;-23
2022/11/27 09:36:06;;;;;;;24.10;12.30;;;;;;;0.19;84.05;99981.16;101123;1313;61839;-23
2022/11/27 09:38:35;;;;;;;29.70;16.90;;;;;;;0.23;84.19;99983.13;100950;1311;62641;-23
2022/11/27 09:41:21;;;;;;;33.70;18.20;;;;;;;0.15;83.94;99979.89;101242;1313;75381;-23
2022/11/27 09:43:52;;;;;;;29.80;18.10;;;;;;;0.06;84.10;99977.88;100993;1308;75747;-23
2022/11/27 09:46:44;;;;;;;17.30;9.90;;;;;;;0.48;83.15;99981.98;100771;1317;75207;-23
2022/11/27 09:49:14;;;;;;;22.60;13.40;;;;;;;0.66;82.20;99981.23;101124;1311;61163;-23
2022/11/27 09:51:47;;;;;;;20.90;11.70;;;;;;;0.29;82.84;99979.89;101075;1313;62859;-23
2022/11/27 09:54:44;;;;;;;22.60;13.00;;;;;;;-0.10;84.35;99975.50;101051;1314;75612;-23
2022/11/27 09:57:21;;;;;;;41.50;19.10;;;;;;;-0.01;85.64;99977.86;100795;1317;76538;-23
2022/11/27 09:59:49;;;;;;;26.70;15.50;;;;;;;0.27;84.75;99978.25;101010;1313;75438;-23
2022/11/27 10:02:20;;;;;;;81.10;44.50;;;;;;;0.75;82.74;99977.89;100873;1313;61184;-23
2022/11/27 10:04:48;;;;;;;58.10;27.60;;;;;;;1.01;81.03;99972.08;100959;1306;61696;-23
2022/11/27 10:07:52;;;;;;;78.20;43.30;;;;;;;0.79;80.53;99972.66;101031;1313;75638;-23
2022/11/27 10:10:40;;;;;;;46.30;27.90;;;;;;;0.64;81.99;99971.68;100773;1313;76676;-23
2022/11/27 10:13:32;;;;;;;31.70;21.60;;;;;;;0.69;81.32;99971.05;100618;1315;75299;-23
2022/11/27 10:16:16;;;;;;;20.70;12.20;;;;;;;0.67;82.47;99969.71;101028;1306;61199;-23
2022/11/27 10:18:46;;;;;;;18.30;10.10;;;;;;;0.48;82.64;99964.22;101114;1315;62594;-22
2022/11/27 10:21:15;;;;;;;17.10;9.20;;;;;;;0.68;82.18;99966.10;100980;1313;73528;-23
2022/11/27 10:24:01;;;;;;;14.30;8.70;;;;;;;1.15;80.61;99962.30;100848;1314;77185;-23
2022/11/27 10:26:45;;;;;;;14.80;9.00;;;;;;;1.36;79.27;99962.73;101046;1315;75287;-23
2022/11/27 10:29:18;;;;;;;;;;;;;;;1.45;78.90;99961.95;100719;1317;62695;-23
2022/11/27 10:31:49;;;;;;;12.50;7.70;;;;;;;1.03;79.52;99965.54;101141;1311;61148;-23
2022/11/27 10:34:37;;;;;;;14.90;8.00;;;;;;;0.53;81.37;99965.27;100697;1312;73373;-23
2022/11/27 10:37:11;;;;;;;15.30;9.20;;;;;;;0.22;82.78;99964.00;101071;1307;76726;-23
2022/11/27 10:39:48;;;;;;;15.30;8.60;;;;;;;0.18;83.94;99961.55;100615;1314;74117;-23
2022/11/27 10:42:36;;;;;;;13.20;8.20;;;;;;;0.03;84.20;99962.74;100824;1307;62619;-23
2022/11/27 10:45:18;;;;;;;14.20;8.20;;;;;;;0.61;82.46;99963.89;101080;1314;61691;-22
2022/11/27 10:47:47;;;;;;;14.10;8.60;;;;;;;0.80;81.42;99961.89;100801;1317;75640;-23
2022/11/27 10:50:15;;;;;;;15.40;9.00;;;;;;;0.73;81.28;99961.89;101114;1314;76730;-23
2022/11/27 10:53:00;;;;;;;18.10;10.40;;;;;;;0.66;81.93;99959.66;100609;1314;73999;-23
2022/11/27 10:55:54;;;;;;;21.80;12.10;;;;;;;0.44;83.20;99960.23;101092;1306;61238;-23
2022/11/27 10:58:23;;;;;;;18.20;10.20;;;;;;;0.12;84.47;99962.36;100955;1314;62830;-24
2022/11/27 11:01:11;;;;;;;13.60;7.40;;;;;;;0.19;85.16;99959.98;100991;1313;75335;-24
2022/11/27 11:03:39;;;;;;;16.40;9.70;;;;;;;0.56;83.97;99962.98;100906;1314;76739;-24
2022/11/27 11:06:22;;;;;;;18.50;10.50;;;;;;;0.77;83.16;99961.94;101032;1305;74184;-24
2022/11/27 11:09:14;;;;;;;15.90;8.30;;;;;;;0.78;82.17;99958.52;100920;1313;62089;-24
2022/11/27 11:11:41;;;;;;;18.30;9.10;;;;;;;0.56;82.52;99962.67;100981;1311;62568;-24
2022/11/27 11:14:16;;;;;;;15.40;8.80;;;;;;;0.55;82.21;99963.88;101133;1306;74556;-24
2022/11/27 11:16:44;;;;;;;11.80;7.00;;;;;;;0.52;82.61;99965.66;100785;1316;74738;-24
2022/11/27 11:19:32;;;;;;;14.70;6.90;;;;;;;1.06;81.86;99965.61;100888;1313;75270;-24
2022/11/27 11:22:03;;;;;;;14.50;8.30;;;;;;;1.33;80.02;99965.91;100992;1314;62727;-24
2022/11/27 11:24:32;;;;;;;14.60;8.30;;;;;;;1.47;79.37;99964.13;101009;1307;63046;-25
2022/11/27 11:27:12;;;;;;;16.20;9.10;;;;;;;1.30;78.81;99958.27;100706;1317;75593;-24
2022/11/27 11:29:47;;;;;;;12.50;7.40;;;;;;;1.30;79.48;99954.54;100890;1315;76714;-24
2022/11/27 11:32:27;;;;;;;15.40;7.10;;;;;;;1.13;79.75;99953.29;100850;1314;75321;-24
2022/11/27 11:35:09;;;;;;;10.40;6.60;;;;;;;1.08;79.84;99954.80;101068;1313;62101;-24
2022/11/27 11:37:38;;;;;;;12.60;6.70;;;;;;;0.90;79.73;99955.61;101157;1315;62586;-24
2022/11/27 11:40:07;;;;;;;15.30;7.60;;;;;;;0.75;80.32;99960.13;100814;1317;75474;-24
2022/11/27 11:42:58;;;;;;;16.80;7.90;;;;;;;1.33;79.20;99952.39;101125;1307;76824;-24
2022/11/27 11:45:32;;;;;;;10.90;6.30;;;;;;;1.75;76.92;99955.95;101170;1317;75384;-24
2022/11/27 11:48:01;;;;;;;10.90;6.70;;;;;;;1.72;75.81;99950.73;100755;1314;62919;-24